Airfield :
LOGIN :

Register | Disclaimer

   EN    FR    IT 

 










Legend :    VFR   Marginal VFR   IFR   Intensive IFR   Very Intensive IFR
Visi :
Ceiling :
>= 8 km
>= 3000ft
5 to 8 km
1000 to 3000 ft
1500m to 5 km
500 to 1000 ft
800 to 1500m
200 to 500 ft
< 800m
< 200 ft
Symbols :   Thunderstorms  Fog  Heavy snow  Heavy precipitations  Wind > 20 kt
SIGMETs :     Misc.  Thunderstorms  Icing  Turbulence  Mountain Waves  Volcanic Ashes






- Airport Elevation : 74 ft
- IATA code : EIN


EHEH - Eindhoven

CURRENT METAR :
  • 221725Z AUTO 21005KT 9999 NCD 13/13 Q1011 BLU NOSIG

EXPIRED METARs :
  • 221655Z AUTO 21007KT 9999 NCD 14/13 Q1010 BLU NOSIG
  • 221625Z AUTO 19006KT 9999 SCT037 BKN058 15/14 Q1010 BLU NOSIG
  • 221555Z AUTO 20006KT 9999 BKN031 OVC035 16/14 Q1010 BLU NOSIG
  • 221525Z AUTO 21006KT 9999 BKN038 BKN084 BKN095 15/14 Q1010 BLU NOSIG
  • 221507Z AUTO 21009KT 190V250 9999 FEW046 SCT063 OVC089 16/14 Q1010 BLU NOSIG
  • 221455Z AUTO 22007KT 190V250 9999 FEW008 SCT068 BKN080 16/15 Q1010 BLU TEMPO FEW008 FEW015CB BKN020

TAF TAF EHEH
Valid from the 22 at 18:00 until the 24 at 00:00 UTC


221711Z 2218/2324 22005KT CAVOK
BECMG 2219/2221 3000 BR
BECMG 2300/2302 0800 FG
PROB40 2303/2308 0200 FG
BECMG 2308/2310 4000 BR BKN004
BECMG 2311/2313 9999 NSW SCT020



MET'MAP, your aeronautical weather chart ! - Copyright ORBIFLY December 2007 - Disclaimer

ORBIFLY MET'MAP TEAM :

Programming & Development : Alexandra Zaïnal
Concept & original design : Baudouin d'Aumeries
Assistance for programming : Marc-Olivier Méhu
Technical & hardware support : Manuel Goepfert

Contact : metmap@orbifly.com




SOURCES & CREDITS :

   NOAA